< < Back
Terminal Aerodrome Forecast


Current Version              Previous Versions:   1  2  3  4  5  6  7  8  9  

Terminal Aerodrome Forecast

838
FTUS42 KFFC 261729
TAFCSG
TAF
KCSG 261729Z 2618/2718 23006KT P6SM SCT050
     FM270200 00000KT P6SM SCT045
     FM271500 14004KT P6SM BKN050=

Latest METAR

395
SAUS70 KWBC 262200 RRA
MTRCSG
METAR KCSG 262151Z AUTO 18007KT 10SM CLR 31/16 A3004 RMK AO2 SLP169
T03060156


USA.gov is the U.S. government's official web portal to all federal, state and local government web resources and services.